sensor_id;sensor_type;location;lat;lon;timestamp;P1;durP1;ratioP1;P2;durP2;ratioP2
19739;SDS011;10027;51.066;13.768;2023-06-10T00:00:29;9.80;;;7.50;;
19739;SDS011;10027;51.066;13.768;2023-06-10T00:02:57;9.90;;;8.00;;
19739;SDS011;10027;51.066;13.768;2023-06-10T00:05:26;8.40;;;7.47;;
19739;SDS011;10027;51.066;13.768;2023-06-10T00:07:56;8.03;;;6.87;;
19739;SDS011;10027;51.066;13.768;2023-06-10T00:10:24;9.03;;;7.47;;
19739;SDS011;10027;51.066;13.768;2023-06-10T00:12:52;8.43;;;7.30;;
19739;SDS011;10027;51.066;13.768;2023-06-10T00:15:19;12.23;;;7.77;;
19739;SDS011;10027;51.066;13.768;2023-06-10T00:17:46;9.93;;;7.23;;
19739;SDS011;10027;51.066;13.768;2023-06-10T00:20:15;7.63;;;6.70;;
19739;SDS011;10027;51.066;13.768;2023-06-10T00:22:42;7.70;;;6.97;;
19739;SDS011;10027;51.066;13.768;2023-06-10T00:25:11;7.07;;;6.37;;
19739;SDS011;10027;51.066;13.768;2023-06-10T00:27:38;7.77;;;6.97;;
19739;SDS011;10027;51.066;13.768;2023-06-10T00:30:06;7.73;;;6.67;;
19739;SDS011;10027;51.066;13.768;2023-06-10T00:32:34;8.03;;;7.17;;
19739;SDS011;10027;51.066;13.768;2023-06-10T00:35:05;7.30;;;6.60;;
19739;SDS011;10027;51.066;13.768;2023-06-10T00:37:33;7.03;;;6.33;;
19739;SDS011;10027;51.066;13.768;2023-06-10T00:40:04;6.60;;;6.00;;
19739;SDS011;10027;51.066;13.768;2023-06-10T00:42:32;7.43;;;6.70;;
19739;SDS011;10027;51.066;13.768;2023-06-10T00:44:59;6.97;;;6.27;;
19739;SDS011;10027;51.066;13.768;2023-06-10T00:47:26;7.03;;;6.33;;
19739;SDS011;10027;51.066;13.768;2023-06-10T00:49:54;7.20;;;6.50;;
19739;SDS011;10027;51.066;13.768;2023-06-10T00:52:22;7.43;;;6.73;;
19739;SDS011;10027;51.066;13.768;2023-06-10T00:54:51;10.87;;;6.87;;
19739;SDS011;10027;51.066;13.768;2023-06-10T00:57:18;7.70;;;6.57;;
19739;SDS011;10027;51.066;13.768;2023-06-10T00:59:47;6.63;;;5.97;;
19739;SDS011;10027;51.066;13.768;2023-06-10T01:02:15;7.27;;;6.40;;
19739;SDS011;10027;51.066;13.768;2023-06-10T01:04:42;8.17;;;6.70;;
19739;SDS011;10027;51.066;13.768;2023-06-10T01:10:00;6.37;;;5.77;;
19739;SDS011;10027;51.066;13.768;2023-06-10T01:15:00;7.10;;;6.33;;
19739;SDS011;10027;51.066;13.768;2023-06-10T01:17:27;7.37;;;6.10;;
19739;SDS011;10027;51.066;13.768;2023-06-10T01:19:56;7.53;;;6.43;;
19739;SDS011;10027;51.066;13.768;2023-06-10T01:22:25;6.70;;;6.10;;
19739;SDS011;10027;51.066;13.768;2023-06-10T01:24:55;6.73;;;6.07;;
19739;SDS011;10027;51.066;13.768;2023-06-10T01:27:26;6.80;;;6.10;;
19739;SDS011;10027;51.066;13.768;2023-06-10T01:29:58;6.53;;;5.80;;
19739;SDS011;10027;51.066;13.768;2023-06-10T01:32:48;7.37;;;6.20;;
19739;SDS011;10027;51.066;13.768;2023-06-10T01:35:17;6.90;;;6.20;;
19739;SDS011;10027;51.066;13.768;2023-06-10T01:37:46;7.93;;;6.20;;
19739;SDS011;10027;51.066;13.768;2023-06-10T01:40:13;8.70;;;6.17;;
19739;SDS011;10027;51.066;13.768;2023-06-10T01:42:41;7.07;;;6.17;;
19739;SDS011;10027;51.066;13.768;2023-06-10T01:45:08;7.20;;;6.50;;
19739;SDS011;10027;51.066;13.768;2023-06-10T01:47:36;6.97;;;6.27;;
19739;SDS011;10027;51.066;13.768;2023-06-10T01:50:03;6.90;;;6.30;;
19739;SDS011;10027;51.066;13.768;2023-06-10T01:52:30;7.20;;;6.43;;
19739;SDS011;10027;51.066;13.768;2023-06-10T01:54:57;8.53;;;6.50;;
19739;SDS011;10027;51.066;13.768;2023-06-10T01:57:24;7.90;;;6.93;;
19739;SDS011;10027;51.066;13.768;2023-06-10T01:59:52;7.23;;;6.50;;
19739;SDS011;10027;51.066;13.768;2023-06-10T02:02:19;6.70;;;6.00;;
19739;SDS011;10027;51.066;13.768;2023-06-10T02:04:48;7.07;;;6.40;;
19739;SDS011;10027;51.066;13.768;2023-06-10T02:07:15;7.43;;;6.73;;
19739;SDS011;10027;51.066;13.768;2023-06-10T02:09:42;7.33;;;6.50;;
19739;SDS011;10027;51.066;13.768;2023-06-10T02:12:09;7.93;;;6.37;;
19739;SDS011;10027;51.066;13.768;2023-06-10T02:14:37;7.20;;;6.50;;
19739;SDS011;10027;51.066;13.768;2023-06-10T02:17:05;7.60;;;6.90;;
19739;SDS011;10027;51.066;13.768;2023-06-10T02:19:32;7.20;;;6.50;;
19739;SDS011;10027;51.066;13.768;2023-06-10T02:22:02;7.57;;;6.77;;
19739;SDS011;10027;51.066;13.768;2023-06-10T02:24:29;8.43;;;6.87;;
19739;SDS011;10027;51.066;13.768;2023-06-10T02:26:57;7.80;;;6.70;;
19739;SDS011;10027;51.066;13.768;2023-06-10T02:29:26;9.40;;;6.93;;
19739;SDS011;10027;51.066;13.768;2023-06-10T02:31:53;7.23;;;6.50;;
19739;SDS011;10027;51.066;13.768;2023-06-10T02:34:21;7.80;;;7.00;;
19739;SDS011;10027;51.066;13.768;2023-06-10T02:36:48;7.67;;;6.87;;
19739;SDS011;10027;51.066;13.768;2023-06-10T02:39:17;7.77;;;6.90;;
19739;SDS011;10027;51.066;13.768;2023-06-10T02:41:44;10.00;;;6.97;;
19739;SDS011;10027;51.066;13.768;2023-06-10T02:44:11;7.93;;;7.10;;
19739;SDS011;10027;51.066;13.768;2023-06-10T02:46:38;14.63;;;7.17;;
19739;SDS011;10027;51.066;13.768;2023-06-10T02:49:05;8.20;;;7.37;;
19739;SDS011;10027;51.066;13.768;2023-06-10T02:51:33;10.90;;;6.73;;
19739;SDS011;10027;51.066;13.768;2023-06-10T02:54:00;7.40;;;6.30;;
19739;SDS011;10027;51.066;13.768;2023-06-10T02:56:27;7.97;;;6.73;;
19739;SDS011;10027;51.066;13.768;2023-06-10T02:58:54;7.37;;;6.67;;
19739;SDS011;10027;51.066;13.768;2023-06-10T03:01:22;8.33;;;6.80;;
19739;SDS011;10027;51.066;13.768;2023-06-10T03:03:49;8.13;;;7.13;;
19739;SDS011;10027;51.066;13.768;2023-06-10T03:06:16;8.07;;;7.07;;
19739;SDS011;10027;51.066;13.768;2023-06-10T03:08:44;9.27;;;7.03;;
19739;SDS011;10027;51.066;13.768;2023-06-10T03:11:14;7.67;;;6.90;;
19739;SDS011;10027;51.066;13.768;2023-06-10T03:13:41;7.93;;;7.13;;
19739;SDS011;10027;51.066;13.768;2023-06-10T03:16:08;7.37;;;6.63;;
19739;SDS011;10027;51.066;13.768;2023-06-10T03:18:35;7.60;;;6.90;;
19739;SDS011;10027;51.066;13.768;2023-06-10T03:21:03;7.93;;;6.70;;
19739;SDS011;10027;51.066;13.768;2023-06-10T03:23:30;7.53;;;6.60;;
19739;SDS011;10027;51.066;13.768;2023-06-10T03:25:58;7.73;;;7.03;;
19739;SDS011;10027;51.066;13.768;2023-06-10T03:28:26;7.33;;;6.63;;
19739;SDS011;10027;51.066;13.768;2023-06-10T03:30:53;8.33;;;7.03;;
19739;SDS011;10027;51.066;13.768;2023-06-10T03:33:21;7.80;;;7.00;;
19739;SDS011;10027;51.066;13.768;2023-06-10T03:35:48;8.10;;;7.10;;
19739;SDS011;10027;51.066;13.768;2023-06-10T03:38:15;9.07;;;7.10;;
19739;SDS011;10027;51.066;13.768;2023-06-10T03:40:42;7.63;;;6.83;;
19739;SDS011;10027;51.066;13.768;2023-06-10T03:43:10;7.17;;;6.47;;
19739;SDS011;10027;51.066;13.768;2023-06-10T03:45:37;8.77;;;7.33;;
19739;SDS011;10027;51.066;13.768;2023-06-10T03:48:04;7.60;;;6.57;;
19739;SDS011;10027;51.066;13.768;2023-06-10T03:50:32;7.77;;;6.90;;
19739;SDS011;10027;51.066;13.768;2023-06-10T03:52:59;7.80;;;7.00;;
19739;SDS011;10027;51.066;13.768;2023-06-10T03:55:26;7.30;;;6.53;;
19739;SDS011;10027;51.066;13.768;2023-06-10T03:57:54;8.33;;;7.20;;
19739;SDS011;10027;51.066;13.768;2023-06-10T04:00:22;8.00;;;7.17;;
19739;SDS011;10027;51.066;13.768;2023-06-10T04:02:49;9.80;;;7.47;;
19739;SDS011;10027;51.066;13.768;2023-06-10T04:05:18;7.70;;;6.43;;
19739;SDS011;10027;51.066;13.768;2023-06-10T04:07:49;8.13;;;7.33;;
19739;SDS011;10027;51.066;13.768;2023-06-10T04:10:17;7.80;;;6.87;;
19739;SDS011;10027;51.066;13.768;2023-06-10T04:12:44;7.47;;;6.50;;
19739;SDS011;10027;51.066;13.768;2023-06-10T04:15:11;8.00;;;7.20;;
19739;SDS011;10027;51.066;13.768;2023-06-10T04:17:39;7.97;;;7.17;;
19739;SDS011;10027;51.066;13.768;2023-06-10T04:20:07;8.40;;;7.60;;
19739;SDS011;10027;51.066;13.768;2023-06-10T04:22:35;8.33;;;7.30;;
19739;SDS011;10027;51.066;13.768;2023-06-10T04:25:03;9.23;;;7.43;;
19739;SDS011;10027;51.066;13.768;2023-06-10T04:27:30;8.97;;;7.50;;
19739;SDS011;10027;51.066;13.768;2023-06-10T04:29:57;8.90;;;8.00;;
19739;SDS011;10027;51.066;13.768;2023-06-10T04:32:24;9.03;;;8.13;;
19739;SDS011;10027;51.066;13.768;2023-06-10T04:34:53;9.23;;;8.17;;
19739;SDS011;10027;51.066;13.768;2023-06-10T04:37:20;8.13;;;7.33;;
19739;SDS011;10027;51.066;13.768;2023-06-10T04:39:47;8.30;;;7.50;;
19739;SDS011;10027;51.066;13.768;2023-06-10T04:42:14;8.53;;;7.63;;
19739;SDS011;10027;51.066;13.768;2023-06-10T04:44:41;8.80;;;7.90;;
19739;SDS011;10027;51.066;13.768;2023-06-10T04:47:09;8.77;;;7.90;;
19739;SDS011;10027;51.066;13.768;2023-06-10T04:49:36;9.60;;;8.60;;
19739;SDS011;10027;51.066;13.768;2023-06-10T04:52:03;9.57;;;7.83;;
19739;SDS011;10027;51.066;13.768;2023-06-10T04:54:31;8.10;;;7.30;;
19739;SDS011;10027;51.066;13.768;2023-06-10T04:56:58;8.27;;;7.47;;
19739;SDS011;10027;51.066;13.768;2023-06-10T04:59:26;7.30;;;6.60;;
19739;SDS011;10027;51.066;13.768;2023-06-10T05:01:54;8.63;;;7.27;;
19739;SDS011;10027;51.066;13.768;2023-06-10T05:04:21;7.87;;;7.13;;
19739;SDS011;10027;51.066;13.768;2023-06-10T05:06:48;7.60;;;7.00;;
19739;SDS011;10027;51.066;13.768;2023-06-10T05:09:15;7.60;;;6.90;;
19739;SDS011;10027;51.066;13.768;2023-06-10T05:11:43;7.13;;;6.50;;
19739;SDS011;10027;51.066;13.768;2023-06-10T05:14:11;7.85;;;7.07;;
19739;SDS011;10027;51.066;13.768;2023-06-10T05:16:38;6.90;;;6.20;;
19739;SDS011;10027;51.066;13.768;2023-06-10T05:19:05;7.15;;;6.45;;
19739;SDS011;10027;51.066;13.768;2023-06-10T05:21:34;6.32;;;5.82;;
19739;SDS011;10027;51.066;13.768;2023-06-10T05:24:01;7.70;;;6.90;;
19739;SDS011;10027;51.066;13.768;2023-06-10T05:26:28;12.88;;;10.63;;
19739;SDS011;10027;51.066;13.768;2023-06-10T05:28:57;8.63;;;7.38;;
19739;SDS011;10027;51.066;13.768;2023-06-10T05:31:25;7.53;;;6.72;;
19739;SDS011;10027;51.066;13.768;2023-06-10T05:33:52;7.35;;;6.68;;
19739;SDS011;10027;51.066;13.768;2023-06-10T05:36:19;7.53;;;6.93;;
19739;SDS011;10027;51.066;13.768;2023-06-10T05:38:47;7.15;;;6.45;;
19739;SDS011;10027;51.066;13.768;2023-06-10T05:41:14;8.20;;;5.65;;
19739;SDS011;10027;51.066;13.768;2023-06-10T05:43:41;6.10;;;5.60;;
19739;SDS011;10027;51.066;13.768;2023-06-10T05:46:08;6.13;;;5.63;;
19739;SDS011;10027;51.066;13.768;2023-06-10T05:48:36;6.05;;;5.60;;
19739;SDS011;10027;51.066;13.768;2023-06-10T05:51:03;6.30;;;5.70;;
19739;SDS011;10027;51.066;13.768;2023-06-10T05:53:31;6.38;;;5.88;;
19739;SDS011;10027;51.066;13.768;2023-06-10T05:55:58;6.22;;;5.63;;
19739;SDS011;10027;51.066;13.768;2023-06-10T05:58:26;6.28;;;5.70;;
19739;SDS011;10027;51.066;13.768;2023-06-10T06:00:53;6.07;;;5.57;;
19739;SDS011;10027;51.066;13.768;2023-06-10T06:03:20;5.88;;;5.28;;
19739;SDS011;10027;51.066;13.768;2023-06-10T06:05:47;5.53;;;5.05;;
19739;SDS011;10027;51.066;13.768;2023-06-10T06:08:14;5.63;;;5.13;;
19739;SDS011;10027;51.066;13.768;2023-06-10T06:10:44;5.50;;;5.10;;
19739;SDS011;10027;51.066;13.768;2023-06-10T06:13:12;5.65;;;4.80;;
19739;SDS011;10027;51.066;13.768;2023-06-10T06:15:39;5.15;;;4.72;;
19739;SDS011;10027;51.066;13.768;2023-06-10T06:18:06;5.32;;;4.93;;
19739;SDS011;10027;51.066;13.768;2023-06-10T06:20:34;5.43;;;4.93;;
19739;SDS011;10027;51.066;13.768;2023-06-10T06:23:01;5.50;;;5.10;;
19739;SDS011;10027;51.066;13.768;2023-06-10T06:25:28;5.35;;;4.95;;
19739;SDS011;10027;51.066;13.768;2023-06-10T06:27:55;5.00;;;4.60;;
19739;SDS011;10027;51.066;13.768;2023-06-10T06:30:22;6.85;;;5.05;;
19739;SDS011;10027;51.066;13.768;2023-06-10T06:32:49;5.22;;;4.88;;
19739;SDS011;10027;51.066;13.768;2023-06-10T06:35:18;5.47;;;5.07;;
19739;SDS011;10027;51.066;13.768;2023-06-10T06:37:45;6.00;;;5.55;;
19739;SDS011;10027;51.066;13.768;2023-06-10T06:40:12;5.90;;;5.50;;
19739;SDS011;10027;51.066;13.768;2023-06-10T06:42:39;5.75;;;5.13;;
19739;SDS011;10027;51.066;13.768;2023-06-10T06:45:06;5.65;;;5.15;;
19739;SDS011;10027;51.066;13.768;2023-06-10T06:47:34;5.78;;;5.38;;
19739;SDS011;10027;51.066;13.768;2023-06-10T06:50:01;5.80;;;5.20;;
19739;SDS011;10027;51.066;13.768;2023-06-10T06:52:29;6.05;;;5.55;;
19739;SDS011;10027;51.066;13.768;2023-06-10T06:54:56;5.70;;;5.20;;
19739;SDS011;10027;51.066;13.768;2023-06-10T06:57:23;6.18;;;5.68;;
19739;SDS011;10027;51.066;13.768;2023-06-10T06:59:50;6.15;;;5.65;;
19739;SDS011;10027;51.066;13.768;2023-06-10T07:02:17;6.20;;;5.60;;
19739;SDS011;10027;51.066;13.768;2023-06-10T07:04:45;6.22;;;5.72;;
19739;SDS011;10027;51.066;13.768;2023-06-10T07:07:15;6.10;;;5.60;;
19739;SDS011;10027;51.066;13.768;2023-06-10T07:09:42;5.90;;;5.40;;
19739;SDS011;10027;51.066;13.768;2023-06-10T07:12:09;6.40;;;5.80;;
19739;SDS011;10027;51.066;13.768;2023-06-10T07:14:36;6.80;;;6.17;;
19739;SDS011;10027;51.066;13.768;2023-06-10T07:17:04;6.30;;;5.70;;
19739;SDS011;10027;51.066;13.768;2023-06-10T07:19:31;6.03;;;5.43;;
19739;SDS011;10027;51.066;13.768;2023-06-10T07:21:58;6.50;;;5.90;;
19739;SDS011;10027;51.066;13.768;2023-06-10T07:24:43;6.87;;;6.17;;
19739;SDS011;10027;51.066;13.768;2023-06-10T07:27:10;6.37;;;5.73;;
19739;SDS011;10027;51.066;13.768;2023-06-10T07:29:38;6.57;;;5.80;;
19739;SDS011;10027;51.066;13.768;2023-06-10T07:32:05;6.53;;;6.00;;
19739;SDS011;10027;51.066;13.768;2023-06-10T07:34:32;6.50;;;5.93;;
19739;SDS011;10027;51.066;13.768;2023-06-10T07:36:59;6.33;;;5.77;;
19739;SDS011;10027;51.066;13.768;2023-06-10T07:39:26;6.77;;;6.17;;
19739;SDS011;10027;51.066;13.768;2023-06-10T07:41:53;7.47;;;6.17;;
19739;SDS011;10027;51.066;13.768;2023-06-10T07:44:23;6.63;;;6.00;;
19739;SDS011;10027;51.066;13.768;2023-06-10T07:46:50;6.80;;;6.10;;
19739;SDS011;10027;51.066;13.768;2023-06-10T07:49:18;6.80;;;5.77;;
19739;SDS011;10027;51.066;13.768;2023-06-10T07:51:45;7.70;;;6.00;;
19739;SDS011;10027;51.066;13.768;2023-06-10T07:54:12;6.00;;;5.50;;
19739;SDS011;10027;51.066;13.768;2023-06-10T07:56:43;6.37;;;5.77;;
19739;SDS011;10027;51.066;13.768;2023-06-10T07:59:10;6.20;;;5.60;;
19739;SDS011;10027;51.066;13.768;2023-06-10T08:01:37;6.47;;;5.87;;
19739;SDS011;10027;51.066;13.768;2023-06-10T08:04:06;5.97;;;5.43;;
19739;SDS011;10027;51.066;13.768;2023-06-10T08:06:34;6.67;;;6.00;;
19739;SDS011;10027;51.066;13.768;2023-06-10T08:09:03;6.35;;;5.63;;
19739;SDS011;10027;51.066;13.768;2023-06-10T08:11:30;5.97;;;5.53;;
19739;SDS011;10027;51.066;13.768;2023-06-10T08:13:57;5.70;;;5.20;;
19739;SDS011;10027;51.066;13.768;2023-06-10T08:16:24;6.20;;;5.70;;
19739;SDS011;10027;51.066;13.768;2023-06-10T08:18:52;5.88;;;5.38;;
19739;SDS011;10027;51.066;13.768;2023-06-10T08:21:21;5.85;;;5.35;;
19739;SDS011;10027;51.066;13.768;2023-06-10T08:23:49;6.15;;;5.65;;
19739;SDS011;10027;51.066;13.768;2023-06-10T08:26:19;5.85;;;5.38;;
19739;SDS011;10027;51.066;13.768;2023-06-10T08:28:47;6.43;;;5.82;;
19739;SDS011;10027;51.066;13.768;2023-06-10T08:31:14;6.15;;;5.65;;
19739;SDS011;10027;51.066;13.768;2023-06-10T08:33:42;6.10;;;5.60;;
19739;SDS011;10027;51.066;13.768;2023-06-10T08:36:09;6.85;;;5.95;;
19739;SDS011;10027;51.066;13.768;2023-06-10T08:38:37;8.25;;;5.85;;
19739;SDS011;10027;51.066;13.768;2023-06-10T08:41:05;6.28;;;5.78;;
19739;SDS011;10027;51.066;13.768;2023-06-10T08:43:39;6.43;;;5.93;;
19739;SDS011;10027;51.066;13.768;2023-06-10T08:46:09;6.88;;;6.22;;
19739;SDS011;10027;51.066;13.768;2023-06-10T08:48:38;6.47;;;5.72;;
19739;SDS011;10027;51.066;13.768;2023-06-10T08:51:09;6.68;;;6.03;;
19739;SDS011;10027;51.066;13.768;2023-06-10T08:53:37;6.57;;;5.97;;
19739;SDS011;10027;51.066;13.768;2023-06-10T08:56:05;6.53;;;5.93;;
19739;SDS011;10027;51.066;13.768;2023-06-10T08:58:33;6.10;;;5.60;;
19739;SDS011;10027;51.066;13.768;2023-06-10T09:01:06;7.57;;;6.00;;
19739;SDS011;10027;51.066;13.768;2023-06-10T09:03:34;6.38;;;5.88;;
19739;SDS011;10027;51.066;13.768;2023-06-10T09:06:04;6.50;;;5.85;;
19739;SDS011;10027;51.066;13.768;2023-06-10T09:08:33;6.35;;;5.75;;
19739;SDS011;10027;51.066;13.768;2023-06-10T09:11:01;6.95;;;6.28;;
19739;SDS011;10027;51.066;13.768;2023-06-10T09:13:29;6.20;;;5.65;;
19739;SDS011;10027;51.066;13.768;2023-06-10T09:15:56;6.20;;;5.60;;
19739;SDS011;10027;51.066;13.768;2023-06-10T09:18:27;6.28;;;5.68;;
19739;SDS011;10027;51.066;13.768;2023-06-10T09:20:55;6.25;;;5.60;;
19739;SDS011;10027;51.066;13.768;2023-06-10T09:23:22;6.03;;;5.43;;
19739;SDS011;10027;51.066;13.768;2023-06-10T09:25:55;6.30;;;5.55;;
19739;SDS011;10027;51.066;13.768;2023-06-10T09:28:23;5.75;;;5.25;;
19739;SDS011;10027;51.066;13.768;2023-06-10T09:30:50;5.70;;;5.18;;
19739;SDS011;10027;51.066;13.768;2023-06-10T09:33:28;6.18;;;5.57;;
19739;SDS011;10027;51.066;13.768;2023-06-10T09:35:55;6.13;;;5.22;;
19739;SDS011;10027;51.066;13.768;2023-06-10T09:38:31;5.85;;;5.35;;
19739;SDS011;10027;51.066;13.768;2023-06-10T09:40:58;6.07;;;5.50;;
19739;SDS011;10027;51.066;13.768;2023-06-10T09:46:06;5.83;;;5.30;;
19739;SDS011;10027;51.066;13.768;2023-06-10T09:48:40;5.77;;;5.27;;
19739;SDS011;10027;51.066;13.768;2023-06-10T09:51:09;6.07;;;5.47;;
19739;SDS011;10027;51.066;13.768;2023-06-10T09:53:37;6.10;;;5.47;;
19739;SDS011;10027;51.066;13.768;2023-06-10T09:56:04;5.90;;;5.30;;
19739;SDS011;10027;51.066;13.768;2023-06-10T09:58:36;6.30;;;5.60;;
19739;SDS011;10027;51.066;13.768;2023-06-10T10:01:10;6.00;;;5.40;;
19739;SDS011;10027;51.066;13.768;2023-06-10T10:03:48;5.53;;;4.97;;
19739;SDS011;10027;51.066;13.768;2023-06-10T10:06:16;5.73;;;5.23;;
19739;SDS011;10027;51.066;13.768;2023-06-10T10:08:48;5.30;;;4.80;;
19739;SDS011;10027;51.066;13.768;2023-06-10T10:11:18;5.83;;;5.00;;
19739;SDS011;10027;51.066;13.768;2023-06-10T10:13:49;5.67;;;5.00;;
19739;SDS011;10027;51.066;13.768;2023-06-10T10:16:17;5.33;;;4.83;;
19739;SDS011;10027;51.066;13.768;2023-06-10T10:18:51;5.87;;;4.77;;
19739;SDS011;10027;51.066;13.768;2023-06-10T10:21:21;5.50;;;4.80;;
19739;SDS011;10027;51.066;13.768;2023-06-10T10:26:19;7.03;;;5.40;;
19739;SDS011;10027;51.066;13.768;2023-06-10T10:28:51;5.40;;;4.90;;
19739;SDS011;10027;51.066;13.768;2023-06-10T10:31:20;5.23;;;4.73;;
19739;SDS011;10027;51.066;13.768;2023-06-10T10:34:00;5.87;;;5.37;;
19739;SDS011;10027;51.066;13.768;2023-06-10T10:36:29;5.93;;;4.97;;
19739;SDS011;10027;51.066;13.768;2023-06-10T10:38:57;5.53;;;5.03;;
19739;SDS011;10027;51.066;13.768;2023-06-10T10:41:24;5.73;;;5.13;;
19739;SDS011;10027;51.066;13.768;2023-06-10T10:43:53;6.40;;;5.70;;
19739;SDS011;10027;51.066;13.768;2023-06-10T10:46:20;5.50;;;5.00;;
19739;SDS011;10027;51.066;13.768;2023-06-10T10:48:51;5.20;;;4.70;;
19739;SDS011;10027;51.066;13.768;2023-06-10T10:51:20;6.00;;;5.40;;
19739;SDS011;10027;51.066;13.768;2023-06-10T10:56:32;5.90;;;5.30;;
19739;SDS011;10027;51.066;13.768;2023-06-10T10:59:08;7.80;;;6.00;;
19739;SDS011;10027;51.066;13.768;2023-06-10T11:01:42;6.27;;;5.67;;
19739;SDS011;10027;51.066;13.768;2023-06-10T11:04:12;6.43;;;5.80;;
19739;SDS011;10027;51.066;13.768;2023-06-10T11:06:40;6.47;;;5.23;;
19739;SDS011;10027;51.066;13.768;2023-06-10T11:09:27;6.00;;;5.50;;
19739;SDS011;10027;51.066;13.768;2023-06-10T11:11:58;7.53;;;6.13;;
19739;SDS011;10027;51.066;13.768;2023-06-10T11:14:26;6.50;;;5.53;;
19739;SDS011;10027;51.066;13.768;2023-06-10T11:16:59;5.40;;;5.00;;
19739;SDS011;10027;51.066;13.768;2023-06-10T11:19:36;7.43;;;5.33;;
19739;SDS011;10027;51.066;13.768;2023-06-10T11:22:05;5.93;;;5.40;;
19739;SDS011;10027;51.066;13.768;2023-06-10T11:24:33;6.10;;;5.50;;
19739;SDS011;10027;51.066;13.768;2023-06-10T11:32:23;6.37;;;5.73;;
19739;SDS011;10027;51.066;13.768;2023-06-10T11:34:52;6.20;;;5.60;;
19739;SDS011;10027;51.066;13.768;2023-06-10T11:37:20;6.00;;;5.50;;
19739;SDS011;10027;51.066;13.768;2023-06-10T11:39:51;6.40;;;5.67;;
19739;SDS011;10027;51.066;13.768;2023-06-10T11:42:18;6.00;;;5.50;;
19739;SDS011;10027;51.066;13.768;2023-06-10T11:44:49;6.17;;;5.57;;
19739;SDS011;10027;51.066;13.768;2023-06-10T11:47:20;5.90;;;5.40;;
19739;SDS011;10027;51.066;13.768;2023-06-10T11:49:57;6.40;;;5.77;;
19739;SDS011;10027;51.066;13.768;2023-06-10T11:52:30;6.33;;;5.73;;
19739;SDS011;10027;51.066;13.768;2023-06-10T11:54:59;5.97;;;5.47;;
19739;SDS011;10027;51.066;13.768;2023-06-10T11:57:26;6.07;;;5.40;;
19739;SDS011;10027;51.066;13.768;2023-06-10T11:59:54;6.53;;;5.63;;
19739;SDS011;10027;51.066;13.768;2023-06-10T12:02:21;7.13;;;6.00;;
19739;SDS011;10027;51.066;13.768;2023-06-10T12:04:48;13.53;;;5.60;;
19739;SDS011;10027;51.066;13.768;2023-06-10T12:07:19;6.17;;;5.60;;
19739;SDS011;10027;51.066;13.768;2023-06-10T12:09:58;5.87;;;5.37;;
19739;SDS011;10027;51.066;13.768;2023-06-10T12:12:46;6.10;;;5.60;;
19739;SDS011;10027;51.066;13.768;2023-06-10T12:15:22;5.50;;;5.00;;
19739;SDS011;10027;51.066;13.768;2023-06-10T12:17:50;5.67;;;5.17;;
19739;SDS011;10027;51.066;13.768;2023-06-10T12:20:30;5.47;;;5.00;;
19739;SDS011;10027;51.066;13.768;2023-06-10T12:22:59;5.90;;;5.23;;
19739;SDS011;10027;51.066;13.768;2023-06-10T12:25:28;6.27;;;5.30;;
19739;SDS011;10027;51.066;13.768;2023-06-10T12:27:56;5.70;;;5.20;;
19739;SDS011;10027;51.066;13.768;2023-06-10T12:30:26;5.83;;;5.23;;
19739;SDS011;10027;51.066;13.768;2023-06-10T12:32:53;5.70;;;5.20;;
19739;SDS011;10027;51.066;13.768;2023-06-10T12:35:25;5.97;;;5.47;;
19739;SDS011;10027;51.066;13.768;2023-06-10T12:40:26;5.70;;;5.20;;
19739;SDS011;10027;51.066;13.768;2023-06-10T12:42:55;6.10;;;5.50;;
19739;SDS011;10027;51.066;13.768;2023-06-10T12:50:36;6.00;;;5.40;;
19739;SDS011;10027;51.066;13.768;2023-06-10T12:53:04;6.97;;;5.67;;
19739;SDS011;10027;51.066;13.768;2023-06-10T12:55:32;5.73;;;5.23;;
19739;SDS011;10027;51.066;13.768;2023-06-10T12:57:59;6.10;;;5.43;;
19739;SDS011;10027;51.066;13.768;2023-06-10T13:00:27;6.20;;;5.60;;
19739;SDS011;10027;51.066;13.768;2023-06-10T13:02:56;5.93;;;5.33;;
19739;SDS011;10027;51.066;13.768;2023-06-10T13:05:24;6.43;;;5.83;;
19739;SDS011;10027;51.066;13.768;2023-06-10T13:07:52;6.10;;;5.60;;
19739;SDS011;10027;51.066;13.768;2023-06-10T13:10:19;7.17;;;5.60;;
19739;SDS011;10027;51.066;13.768;2023-06-10T13:12:50;6.37;;;5.13;;
19739;SDS011;10027;51.066;13.768;2023-06-10T13:15:18;5.97;;;5.23;;
19739;SDS011;10027;51.066;13.768;2023-06-10T13:17:45;6.10;;;5.50;;
19739;SDS011;10027;51.066;13.768;2023-06-10T13:20:16;6.57;;;5.13;;
19739;SDS011;10027;51.066;13.768;2023-06-10T13:22:43;6.77;;;5.00;;
19739;SDS011;10027;51.066;13.768;2023-06-10T13:25:11;5.47;;;5.00;;
19739;SDS011;10027;51.066;13.768;2023-06-10T13:27:39;5.67;;;5.07;;
19739;SDS011;10027;51.066;13.768;2023-06-10T13:30:09;6.33;;;5.40;;
19739;SDS011;10027;51.066;13.768;2023-06-10T13:32:36;5.87;;;5.27;;
19739;SDS011;10027;51.066;13.768;2023-06-10T13:37:32;5.50;;;5.00;;
19739;SDS011;10027;51.066;13.768;2023-06-10T13:40:00;5.30;;;4.80;;
19739;SDS011;10027;51.066;13.768;2023-06-10T13:42:27;6.07;;;5.57;;
19739;SDS011;10027;51.066;13.768;2023-06-10T13:47:21;6.43;;;5.03;;
19739;SDS011;10027;51.066;13.768;2023-06-10T13:49:48;5.57;;;4.80;;
19739;SDS011;10027;51.066;13.768;2023-06-10T13:52:15;4.73;;;4.23;;
19739;SDS011;10027;51.066;13.768;2023-06-10T13:54:43;4.57;;;4.17;;
19739;SDS011;10027;51.066;13.768;2023-06-10T13:57:10;4.63;;;4.20;;
19739;SDS011;10027;51.066;13.768;2023-06-10T13:59:37;4.97;;;4.47;;
19739;SDS011;10027;51.066;13.768;2023-06-10T14:02:04;6.07;;;4.53;;
19739;SDS011;10027;51.066;13.768;2023-06-10T14:04:31;5.83;;;4.57;;
19739;SDS011;10027;51.066;13.768;2023-06-10T14:06:59;5.23;;;4.27;;
19739;SDS011;10027;51.066;13.768;2023-06-10T14:09:26;4.70;;;4.30;;
19739;SDS011;10027;51.066;13.768;2023-06-10T19:35:54;8.40;;;7.50;;
19739;SDS011;10027;51.066;13.768;2023-06-10T19:38:22;7.93;;;7.13;;
19739;SDS011;10027;51.066;13.768;2023-06-10T19:40:49;8.13;;;6.90;;
19739;SDS011;10027;51.066;13.768;2023-06-10T19:43:16;6.70;;;6.10;;
19739;SDS011;10027;51.066;13.768;2023-06-10T19:45:43;7.70;;;6.90;;
19739;SDS011;10027;51.066;13.768;2023-06-10T19:48:10;7.13;;;6.17;;
19739;SDS011;10027;51.066;13.768;2023-06-10T19:50:39;9.40;;;6.30;;
19739;SDS011;10027;51.066;13.768;2023-06-10T19:53:06;6.83;;;6.13;;
19739;SDS011;10027;51.066;13.768;2023-06-10T19:55:33;7.03;;;6.33;;
19739;SDS011;10027;51.066;13.768;2023-06-10T19:58:03;8.30;;;6.57;;
19739;SDS011;10027;51.066;13.768;2023-06-10T20:00:31;6.97;;;6.27;;
19739;SDS011;10027;51.066;13.768;2023-06-10T20:02:58;7.90;;;6.23;;
19739;SDS011;10027;51.066;13.768;2023-06-10T20:05:25;7.00;;;6.30;;
19739;SDS011;10027;51.066;13.768;2023-06-10T20:07:53;6.97;;;6.20;;
19739;SDS011;10027;51.066;13.768;2023-06-10T20:10:20;7.13;;;6.30;;
19739;SDS011;10027;51.066;13.768;2023-06-10T20:12:47;6.73;;;6.07;;
19739;SDS011;10027;51.066;13.768;2023-06-10T20:15:14;7.13;;;6.00;;
19739;SDS011;10027;51.066;13.768;2023-06-10T20:17:41;7.07;;;6.03;;
19739;SDS011;10027;51.066;13.768;2023-06-10T20:20:11;9.20;;;6.17;;
19739;SDS011;10027;51.066;13.768;2023-06-10T20:22:39;7.67;;;6.17;;
19739;SDS011;10027;51.066;13.768;2023-06-10T20:25:06;7.47;;;6.10;;
19739;SDS011;10027;51.066;13.768;2023-06-10T20:27:34;7.30;;;6.60;;
19739;SDS011;10027;51.066;13.768;2023-06-10T20:30:01;7.57;;;6.77;;
19739;SDS011;10027;51.066;13.768;2023-06-10T20:32:28;7.70;;;6.00;;
19739;SDS011;10027;51.066;13.768;2023-06-10T20:34:56;7.53;;;5.90;;